sensor_id;sensor_type;location;lat;lon;timestamp;temperature;humidity
17066;DHT22;23120;52.336;21.182;2023-09-18T00:02:20;18.90;99.90
17066;DHT22;23120;52.336;21.182;2023-09-18T00:04:47;18.90;99.90
17066;DHT22;23120;52.336;21.182;2023-09-18T00:07:14;18.90;99.90
17066;DHT22;23120;52.336;21.182;2023-09-18T00:09:41;18.80;99.90
17066;DHT22;23120;52.336;21.182;2023-09-18T00:12:08;18.80;99.90
17066;DHT22;23120;52.336;21.182;2023-09-18T00:14:35;18.80;99.90
17066;DHT22;23120;52.336;21.182;2023-09-18T00:17:02;18.70;99.90
17066;DHT22;23120;52.336;21.182;2023-09-18T00:19:30;18.70;99.90
17066;DHT22;23120;52.336;21.182;2023-09-18T00:21:59;18.70;99.90
17066;DHT22;23120;52.336;21.182;2023-09-18T00:24:26;18.70;99.90
17066;DHT22;23120;52.336;21.182;2023-09-18T00:26:53;18.60;99.90
17066;DHT22;23120;52.336;21.182;2023-09-18T00:29:20;18.50;99.90
17066;DHT22;23120;52.336;21.182;2023-09-18T00:31:47;18.50;99.90
17066;DHT22;23120;52.336;21.182;2023-09-18T00:34:14;18.50;99.90
17066;DHT22;23120;52.336;21.182;2023-09-18T00:36:42;18.50;99.90
17066;DHT22;23120;52.336;21.182;2023-09-18T00:39:10;18.50;99.90
17066;DHT22;23120;52.336;21.182;2023-09-18T00:41:37;18.40;99.90
17066;DHT22;23120;52.336;21.182;2023-09-18T00:44:04;18.40;99.90
17066;DHT22;23120;52.336;21.182;2023-09-18T00:46:32;18.40;99.90
17066;DHT22;23120;52.336;21.182;2023-09-18T00:49:00;18.40;99.90
17066;DHT22;23120;52.336;21.182;2023-09-18T00:51:28;18.30;99.90
17066;DHT22;23120;52.336;21.182;2023-09-18T00:53:57;18.30;99.90
17066;DHT22;23120;52.336;21.182;2023-09-18T00:56:24;18.30;99.90
17066;DHT22;23120;52.336;21.182;2023-09-18T00:58:52;18.20;99.90
17066;DHT22;23120;52.336;21.182;2023-09-18T01:01:19;18.20;99.90
17066;DHT22;23120;52.336;21.182;2023-09-18T01:03:49;18.20;99.90
17066;DHT22;23120;52.336;21.182;2023-09-18T01:06:42;18.10;99.90
17066;DHT22;23120;52.336;21.182;2023-09-18T01:09:11;18.00;99.90
17066;DHT22;23120;52.336;21.182;2023-09-18T01:11:48;18.00;99.90
17066;DHT22;23120;52.336;21.182;2023-09-18T01:14:22;18.00;99.90
17066;DHT22;23120;52.336;21.182;2023-09-18T01:16:54;18.00;99.90
17066;DHT22;23120;52.336;21.182;2023-09-18T01:19:39;17.90;99.90
17066;DHT22;23120;52.336;21.182;2023-09-18T01:22:07;17.80;99.90
17066;DHT22;23120;52.336;21.182;2023-09-18T01:24:37;17.80;99.90
17066;DHT22;23120;52.336;21.182;2023-09-18T01:27:05;17.80;99.90
17066;DHT22;23120;52.336;21.182;2023-09-18T01:29:32;17.70;99.90
17066;DHT22;23120;52.336;21.182;2023-09-18T01:31:59;17.60;99.90
17066;DHT22;23120;52.336;21.182;2023-09-18T01:34:28;17.60;99.90
17066;DHT22;23120;52.336;21.182;2023-09-18T01:36:58;17.60;99.90
17066;DHT22;23120;52.336;21.182;2023-09-18T01:39:26;17.60;99.90
17066;DHT22;23120;52.336;21.182;2023-09-18T01:41:59;17.60;99.90
17066;DHT22;23120;52.336;21.182;2023-09-18T01:44:27;17.50;99.90
17066;DHT22;23120;52.336;21.182;2023-09-18T01:46:56;17.50;99.90
17066;DHT22;23120;52.336;21.182;2023-09-18T01:49:34;17.50;99.90
17066;DHT22;23120;52.336;21.182;2023-09-18T01:52:01;17.40;99.90
17066;DHT22;23120;52.336;21.182;2023-09-18T01:54:28;17.40;99.90
17066;DHT22;23120;52.336;21.182;2023-09-18T01:56:55;17.40;99.90
17066;DHT22;23120;52.336;21.182;2023-09-18T01:59:24;17.40;99.90
17066;DHT22;23120;52.336;21.182;2023-09-18T02:01:51;17.30;99.90
17066;DHT22;23120;52.336;21.182;2023-09-18T02:04:19;17.30;99.90
17066;DHT22;23120;52.336;21.182;2023-09-18T02:06:47;17.30;99.90
17066;DHT22;23120;52.336;21.182;2023-09-18T02:09:15;17.20;99.90
17066;DHT22;23120;52.336;21.182;2023-09-18T02:11:43;17.20;99.90
17066;DHT22;23120;52.336;21.182;2023-09-18T02:14:11;17.10;99.90
17066;DHT22;23120;52.336;21.182;2023-09-18T02:16:40;17.10;99.90
17066;DHT22;23120;52.336;21.182;2023-09-18T02:19:09;17.00;99.90
17066;DHT22;23120;52.336;21.182;2023-09-18T02:21:37;17.00;99.90
17066;DHT22;23120;52.336;21.182;2023-09-18T02:24:06;16.90;99.90
17066;DHT22;23120;52.336;21.182;2023-09-18T02:26:33;17.00;99.90
17066;DHT22;23120;52.336;21.182;2023-09-18T02:29:02;17.00;99.90
17066;DHT22;23120;52.336;21.182;2023-09-18T02:31:30;16.90;99.90
17066;DHT22;23120;52.336;21.182;2023-09-18T02:33:58;16.90;99.90
17066;DHT22;23120;52.336;21.182;2023-09-18T02:36:25;16.80;99.90
17066;DHT22;23120;52.336;21.182;2023-09-18T02:38:52;16.80;99.90
17066;DHT22;23120;52.336;21.182;2023-09-18T02:41:18;16.80;99.90
17066;DHT22;23120;52.336;21.182;2023-09-18T02:43:46;16.80;99.90
17066;DHT22;23120;52.336;21.182;2023-09-18T02:46:13;16.80;99.90
17066;DHT22;23120;52.336;21.182;2023-09-18T02:48:39;16.70;99.90
17066;DHT22;23120;52.336;21.182;2023-09-18T02:51:08;16.70;99.90
17066;DHT22;23120;52.336;21.182;2023-09-18T02:53:34;16.60;99.90
17066;DHT22;23120;52.336;21.182;2023-09-18T02:56:01;16.70;99.90
17066;DHT22;23120;52.336;21.182;2023-09-18T02:58:28;16.70;99.90
17066;DHT22;23120;52.336;21.182;2023-09-18T03:00:56;16.70;99.90
17066;DHT22;23120;52.336;21.182;2023-09-18T03:03:26;16.70;99.90
17066;DHT22;23120;52.336;21.182;2023-09-18T03:05:52;16.70;99.90
17066;DHT22;23120;52.336;21.182;2023-09-18T03:08:21;16.70;99.90
17066;DHT22;23120;52.336;21.182;2023-09-18T03:10:47;16.70;99.90
17066;DHT22;23120;52.336;21.182;2023-09-18T03:13:15;16.70;99.90
17066;DHT22;23120;52.336;21.182;2023-09-18T03:15:45;16.70;99.90
17066;DHT22;23120;52.336;21.182;2023-09-18T03:18:13;16.70;99.90
17066;DHT22;23120;52.336;21.182;2023-09-18T03:20:41;16.70;99.90
17066;DHT22;23120;52.336;21.182;2023-09-18T03:23:08;16.70;99.90
17066;DHT22;23120;52.336;21.182;2023-09-18T03:25:37;16.70;99.90
17066;DHT22;23120;52.336;21.182;2023-09-18T03:28:04;16.70;99.90
17066;DHT22;23120;52.336;21.182;2023-09-18T03:30:32;16.70;99.90
17066;DHT22;23120;52.336;21.182;2023-09-18T03:33:00;16.70;99.90
17066;DHT22;23120;52.336;21.182;2023-09-18T03:35:31;16.80;99.90
17066;DHT22;23120;52.336;21.182;2023-09-18T03:37:58;16.70;99.90
17066;DHT22;23120;52.336;21.182;2023-09-18T03:40:26;16.70;99.90
17066;DHT22;23120;52.336;21.182;2023-09-18T03:42:54;16.70;99.90
17066;DHT22;23120;52.336;21.182;2023-09-18T03:45:21;16.70;99.90
17066;DHT22;23120;52.336;21.182;2023-09-18T03:47:49;16.70;99.90
17066;DHT22;23120;52.336;21.182;2023-09-18T03:50:16;16.70;99.90
17066;DHT22;23120;52.336;21.182;2023-09-18T03:52:43;16.80;99.90
17066;DHT22;23120;52.336;21.182;2023-09-18T03:55:10;16.80;99.90
17066;DHT22;23120;52.336;21.182;2023-09-18T03:57:39;16.80;99.90
17066;DHT22;23120;52.336;21.182;2023-09-18T04:00:08;16.70;99.90
17066;DHT22;23120;52.336;21.182;2023-09-18T04:02:40;16.80;99.90
17066;DHT22;23120;52.336;21.182;2023-09-18T04:05:07;16.80;99.90
17066;DHT22;23120;52.336;21.182;2023-09-18T04:07:35;16.70;99.90
17066;DHT22;23120;52.336;21.182;2023-09-18T04:10:02;16.70;99.90
17066;DHT22;23120;52.336;21.182;2023-09-18T04:12:31;16.80;99.90
17066;DHT22;23120;52.336;21.182;2023-09-18T04:14:58;16.80;99.90
17066;DHT22;23120;52.336;21.182;2023-09-18T04:17:27;16.80;99.90
17066;DHT22;23120;52.336;21.182;2023-09-18T04:19:53;16.80;99.90
17066;DHT22;23120;52.336;21.182;2023-09-18T04:22:21;16.80;99.90
17066;DHT22;23120;52.336;21.182;2023-09-18T04:24:48;16.80;99.90
17066;DHT22;23120;52.336;21.182;2023-09-18T04:27:15;16.80;99.90
17066;DHT22;23120;52.336;21.182;2023-09-18T04:29:42;16.80;99.90
17066;DHT22;23120;52.336;21.182;2023-09-18T04:32:09;16.80;99.90
17066;DHT22;23120;52.336;21.182;2023-09-18T04:34:37;16.80;99.90
17066;DHT22;23120;52.336;21.182;2023-09-18T04:37:05;16.80;99.90
17066;DHT22;23120;52.336;21.182;2023-09-18T04:39:31;16.80;99.90
17066;DHT22;23120;52.336;21.182;2023-09-18T04:42:01;16.80;99.90
17066;DHT22;23120;52.336;21.182;2023-09-18T04:44:30;16.80;99.90
17066;DHT22;23120;52.336;21.182;2023-09-18T04:46:57;16.80;99.90
17066;DHT22;23120;52.336;21.182;2023-09-18T04:49:25;16.80;99.90
17066;DHT22;23120;52.336;21.182;2023-09-18T04:51:55;16.80;99.90
17066;DHT22;23120;52.336;21.182;2023-09-18T04:54:23;16.80;99.90
17066;DHT22;23120;52.336;21.182;2023-09-18T04:56:49;16.90;99.90
17066;DHT22;23120;52.336;21.182;2023-09-18T04:59:16;16.90;99.90
17066;DHT22;23120;52.336;21.182;2023-09-18T05:01:43;16.90;99.90
17066;DHT22;23120;52.336;21.182;2023-09-18T05:04:10;16.90;99.90
17066;DHT22;23120;52.336;21.182;2023-09-18T05:06:38;17.00;99.90
17066;DHT22;23120;52.336;21.182;2023-09-18T05:09:07;17.00;99.90
17066;DHT22;23120;52.336;21.182;2023-09-18T05:11:34;17.00;99.90
17066;DHT22;23120;52.336;21.182;2023-09-18T05:14:01;17.00;99.90
17066;DHT22;23120;52.336;21.182;2023-09-18T05:16:58;17.00;99.90
17066;DHT22;23120;52.336;21.182;2023-09-18T05:19:25;17.00;99.90
17066;DHT22;23120;52.336;21.182;2023-09-18T05:21:52;17.00;99.90
17066;DHT22;23120;52.336;21.182;2023-09-18T05:24:22;17.10;99.90
17066;DHT22;23120;52.336;21.182;2023-09-18T05:26:53;17.00;99.90
17066;DHT22;23120;52.336;21.182;2023-09-18T05:29:20;17.10;99.90
17066;DHT22;23120;52.336;21.182;2023-09-18T05:31:47;17.20;99.90
17066;DHT22;23120;52.336;21.182;2023-09-18T05:34:14;17.20;99.90
17066;DHT22;23120;52.336;21.182;2023-09-18T05:36:41;17.20;99.90
17066;DHT22;23120;52.336;21.182;2023-09-18T05:39:08;17.30;99.90
17066;DHT22;23120;52.336;21.182;2023-09-18T05:41:38;17.30;99.90
17066;DHT22;23120;52.336;21.182;2023-09-18T05:44:05;17.30;99.90
17066;DHT22;23120;52.336;21.182;2023-09-18T05:46:34;17.30;99.90
17066;DHT22;23120;52.336;21.182;2023-09-18T05:49:01;17.40;99.90
17066;DHT22;23120;52.336;21.182;2023-09-18T05:51:28;17.40;99.90
17066;DHT22;23120;52.336;21.182;2023-09-18T05:53:55;17.40;99.90
17066;DHT22;23120;52.336;21.182;2023-09-18T05:56:22;17.50;99.90
17066;DHT22;23120;52.336;21.182;2023-09-18T05:58:50;17.50;99.90
17066;DHT22;23120;52.336;21.182;2023-09-18T06:01:18;17.50;99.90
17066;DHT22;23120;52.336;21.182;2023-09-18T06:03:45;17.60;99.90
17066;DHT22;23120;52.336;21.182;2023-09-18T06:06:13;17.60;99.90
17066;DHT22;23120;52.336;21.182;2023-09-18T06:08:40;17.70;99.90
17066;DHT22;23120;52.336;21.182;2023-09-18T06:11:06;17.70;99.90
17066;DHT22;23120;52.336;21.182;2023-09-18T06:13:33;17.70;99.90
17066;DHT22;23120;52.336;21.182;2023-09-18T06:16:02;17.70;99.90
17066;DHT22;23120;52.336;21.182;2023-09-18T06:18:32;17.80;99.90
17066;DHT22;23120;52.336;21.182;2023-09-18T06:21:01;17.80;99.90
17066;DHT22;23120;52.336;21.182;2023-09-18T06:23:27;17.90;99.90
17066;DHT22;23120;52.336;21.182;2023-09-18T06:29:56;18.00;99.90
17066;DHT22;23120;52.336;21.182;2023-09-18T06:32:24;18.00;99.90
17066;DHT22;23120;52.336;21.182;2023-09-18T06:34:51;18.10;99.90
17066;DHT22;23120;52.336;21.182;2023-09-18T06:37:18;18.10;99.90
17066;DHT22;23120;52.336;21.182;2023-09-18T06:39:46;18.20;99.90
17066;DHT22;23120;52.336;21.182;2023-09-18T06:42:12;18.20;99.90
17066;DHT22;23120;52.336;21.182;2023-09-18T06:44:39;18.30;99.90
17066;DHT22;23120;52.336;21.182;2023-09-18T06:47:06;18.40;99.90
17066;DHT22;23120;52.336;21.182;2023-09-18T06:49:35;18.50;99.90
17066;DHT22;23120;52.336;21.182;2023-09-18T06:52:02;18.60;99.90
17066;DHT22;23120;52.336;21.182;2023-09-18T06:54:30;18.70;99.90
17066;DHT22;23120;52.336;21.182;2023-09-18T06:56:57;18.70;99.90
17066;DHT22;23120;52.336;21.182;2023-09-18T06:59:24;18.90;99.90
17066;DHT22;23120;52.336;21.182;2023-09-18T07:01:50;19.00;99.90
17066;DHT22;23120;52.336;21.182;2023-09-18T07:12:14;19.30;99.90
17066;DHT22;23120;52.336;21.182;2023-09-18T07:14:44;19.40;99.90
17066;DHT22;23120;52.336;21.182;2023-09-18T07:17:11;19.50;99.90
17066;DHT22;23120;52.336;21.182;2023-09-18T07:19:38;19.60;99.90
17066;DHT22;23120;52.336;21.182;2023-09-18T07:22:05;19.70;99.90
17066;DHT22;23120;52.336;21.182;2023-09-18T07:24:34;19.80;99.90
17066;DHT22;23120;52.336;21.182;2023-09-18T07:42:32;20.70;99.90
17066;DHT22;23120;52.336;21.182;2023-09-18T07:48:59;21.10;99.90
17066;DHT22;23120;52.336;21.182;2023-09-18T07:51:28;21.20;99.90
17066;DHT22;23120;52.336;21.182;2023-09-18T07:54:07;21.40;99.90
17066;DHT22;23120;52.336;21.182;2023-09-18T07:56:34;21.50;99.90
17066;DHT22;23120;52.336;21.182;2023-09-18T07:59:03;21.70;99.90
17066;DHT22;23120;52.336;21.182;2023-09-18T08:01:30;21.90;99.90
17066;DHT22;23120;52.336;21.182;2023-09-18T08:03:58;22.10;99.90
17066;DHT22;23120;52.336;21.182;2023-09-18T08:06:26;22.20;99.90
17066;DHT22;23120;52.336;21.182;2023-09-18T08:08:53;22.40;99.90
17066;DHT22;23120;52.336;21.182;2023-09-18T08:11:20;22.50;99.90
17066;DHT22;23120;52.336;21.182;2023-09-18T08:13:47;22.60;99.90
17066;DHT22;23120;52.336;21.182;2023-09-18T08:16:16;22.80;99.90
17066;DHT22;23120;52.336;21.182;2023-09-18T08:18:43;23.00;99.90
17066;DHT22;23120;52.336;21.182;2023-09-18T08:21:10;22.90;99.90
17066;DHT22;23120;52.336;21.182;2023-09-18T08:23:39;23.00;99.90
17066;DHT22;23120;52.336;21.182;2023-09-18T08:26:06;23.10;99.90
17066;DHT22;23120;52.336;21.182;2023-09-18T08:41:28;23.90;99.90
17066;DHT22;23120;52.336;21.182;2023-09-18T08:44:01;24.10;99.90
17066;DHT22;23120;52.336;21.182;2023-09-18T08:46:29;24.20;99.90
17066;DHT22;23120;52.336;21.182;2023-09-18T08:48:57;24.30;99.90
17066;DHT22;23120;52.336;21.182;2023-09-18T08:51:24;24.50;99.90
17066;DHT22;23120;52.336;21.182;2023-09-18T08:53:51;24.60;99.90
17066;DHT22;23120;52.336;21.182;2023-09-18T08:56:21;24.80;99.90
17066;DHT22;23120;52.336;21.182;2023-09-18T08:58:49;24.90;99.90
17066;DHT22;23120;52.336;21.182;2023-09-18T09:01:36;25.00;99.90
17066;DHT22;23120;52.336;21.182;2023-09-18T09:04:03;25.20;99.90
17066;DHT22;23120;52.336;21.182;2023-09-18T09:06:30;25.30;99.90
17066;DHT22;23120;52.336;21.182;2023-09-18T09:08:58;25.50;99.90
17066;DHT22;23120;52.336;21.182;2023-09-18T09:11:24;25.70;99.90
17066;DHT22;23120;52.336;21.182;2023-09-18T09:14:09;25.70;99.90
17066;DHT22;23120;52.336;21.182;2023-09-18T09:16:38;25.90;99.90
17066;DHT22;23120;52.336;21.182;2023-09-18T09:19:06;26.00;99.90
17066;DHT22;23120;52.336;21.182;2023-09-18T09:25:51;26.30;99.90
17066;DHT22;23120;52.336;21.182;2023-09-18T09:28:29;26.40;99.90
17066;DHT22;23120;52.336;21.182;2023-09-18T09:31:01;26.60;99.80
17066;DHT22;23120;52.336;21.182;2023-09-18T09:33:49;26.70;99.90
17066;DHT22;23120;52.336;21.182;2023-09-18T09:36:19;26.90;99.50
17066;DHT22;23120;52.336;21.182;2023-09-18T09:38:46;27.10;97.60
17066;DHT22;23120;52.336;21.182;2023-09-18T09:41:13;27.10;98.20
17066;DHT22;23120;52.336;21.182;2023-09-18T09:43:42;27.20;97.50
17066;DHT22;23120;52.336;21.182;2023-09-18T09:46:15;27.40;96.80
17066;DHT22;23120;52.336;21.182;2023-09-18T09:48:58;27.50;96.40
17066;DHT22;23120;52.336;21.182;2023-09-18T09:51:27;27.50;97.10
17066;DHT22;23120;52.336;21.182;2023-09-18T09:53:54;27.60;96.50
17066;DHT22;23120;52.336;21.182;2023-09-18T09:56:40;27.70;95.60
17066;DHT22;23120;52.336;21.182;2023-09-18T09:59:06;27.80;95.30
17066;DHT22;23120;52.336;21.182;2023-09-18T10:01:35;27.90;96.30
17066;DHT22;23120;52.336;21.182;2023-09-18T10:04:05;27.90;95.50
17066;DHT22;23120;52.336;21.182;2023-09-18T10:06:34;28.00;94.60
17066;DHT22;23120;52.336;21.182;2023-09-18T10:09:02;28.00;94.30
17066;DHT22;23120;52.336;21.182;2023-09-18T10:11:30;28.10;93.70
17066;DHT22;23120;52.336;21.182;2023-09-18T10:14:00;28.10;93.30
17066;DHT22;23120;52.336;21.182;2023-09-18T10:16:34;28.10;91.60
17066;DHT22;23120;52.336;21.182;2023-09-18T10:19:06;28.20;93.00
17066;DHT22;23120;52.336;21.182;2023-09-18T10:21:41;28.30;91.70
17066;DHT22;23120;52.336;21.182;2023-09-18T10:24:14;28.40;90.90
17066;DHT22;23120;52.336;21.182;2023-09-18T10:26:54;28.50;91.30
17066;DHT22;23120;52.336;21.182;2023-09-18T10:33:45;28.60;87.20
17066;DHT22;23120;52.336;21.182;2023-09-18T10:36:14;28.60;90.20
17066;DHT22;23120;52.336;21.182;2023-09-18T10:38:44;28.70;90.00
17066;DHT22;23120;52.336;21.182;2023-09-18T10:41:16;28.70;88.80
17066;DHT22;23120;52.336;21.182;2023-09-18T10:43:44;28.80;90.20
17066;DHT22;23120;52.336;21.182;2023-09-18T10:46:11;28.80;86.30
17066;DHT22;23120;52.336;21.182;2023-09-18T10:48:44;28.80;86.00
17066;DHT22;23120;52.336;21.182;2023-09-18T10:51:13;28.80;86.30
17066;DHT22;23120;52.336;21.182;2023-09-18T10:53:40;28.80;84.50
17066;DHT22;23120;52.336;21.182;2023-09-18T10:56:07;28.80;84.10
17066;DHT22;23120;52.336;21.182;2023-09-18T10:58:34;28.90;83.60
17066;DHT22;23120;52.336;21.182;2023-09-18T11:01:05;28.90;84.50
17066;DHT22;23120;52.336;21.182;2023-09-18T11:03:33;28.90;83.00
17066;DHT22;23120;52.336;21.182;2023-09-18T11:06:06;28.90;83.60
17066;DHT22;23120;52.336;21.182;2023-09-18T11:08:36;29.00;84.40
17066;DHT22;23120;52.336;21.182;2023-09-18T11:11:10;29.00;83.20
17066;DHT22;23120;52.336;21.182;2023-09-18T11:13:43;29.00;83.60
17066;DHT22;23120;52.336;21.182;2023-09-18T11:16:19;29.00;83.30
17066;DHT22;23120;52.336;21.182;2023-09-18T11:19:07;29.00;80.20
17066;DHT22;23120;52.336;21.182;2023-09-18T11:21:35;29.10;81.20
17066;DHT22;23120;52.336;21.182;2023-09-18T11:24:04;29.00;82.40
17066;DHT22;23120;52.336;21.182;2023-09-18T11:26:33;29.10;82.00
17066;DHT22;23120;52.336;21.182;2023-09-18T11:29:00;29.10;82.80
17066;DHT22;23120;52.336;21.182;2023-09-18T11:31:56;29.10;79.30
17066;DHT22;23120;52.336;21.182;2023-09-18T11:34:25;29.00;78.10
17066;DHT22;23120;52.336;21.182;2023-09-18T11:37:19;29.10;79.70
17066;DHT22;23120;52.336;21.182;2023-09-18T11:43:24;29.00;80.90
17066;DHT22;23120;52.336;21.182;2023-09-18T11:45:57;29.00;78.10
17066;DHT22;23120;52.336;21.182;2023-09-18T11:52:29;29.00;79.30
17066;DHT22;23120;52.336;21.182;2023-09-18T11:54:58;29.00;77.90
17066;DHT22;23120;52.336;21.182;2023-09-18T11:57:36;29.00;80.00
17066;DHT22;23120;52.336;21.182;2023-09-18T12:00:32;29.00;83.00
17066;DHT22;23120;52.336;21.182;2023-09-18T12:03:13;29.10;79.90
17066;DHT22;23120;52.336;21.182;2023-09-18T12:06:07;29.10;83.90
17066;DHT22;23120;52.336;21.182;2023-09-18T12:08:36;29.10;79.30
17066;DHT22;23120;52.336;21.182;2023-09-18T12:11:05;28.90;79.10
17066;DHT22;23120;52.336;21.182;2023-09-18T12:13:41;28.90;84.00
17066;DHT22;23120;52.336;21.182;2023-09-18T12:16:08;28.80;84.10
17066;DHT22;23120;52.336;21.182;2023-09-18T12:19:01;28.80;84.40
17066;DHT22;23120;52.336;21.182;2023-09-18T12:21:57;28.80;82.60
17066;DHT22;23120;52.336;21.182;2023-09-18T12:27:30;28.90;84.00
17066;DHT22;23120;52.336;21.182;2023-09-18T12:34:04;28.90;80.00
17066;DHT22;23120;52.336;21.182;2023-09-18T12:36:34;28.90;80.70
17066;DHT22;23120;52.336;21.182;2023-09-18T12:39:01;28.90;84.50
17066;DHT22;23120;52.336;21.182;2023-09-18T12:41:28;29.00;85.50
17066;DHT22;23120;52.336;21.182;2023-09-18T14:16:13;31.10;76.90
17066;DHT22;23120;52.336;21.182;2023-09-18T14:18:57;31.20;76.20
17066;DHT22;23120;52.336;21.182;2023-09-18T14:21:25;31.30;76.50
17066;DHT22;23120;52.336;21.182;2023-09-18T14:23:56;31.40;75.60
17066;DHT22;23120;52.336;21.182;2023-09-18T14:26:22;31.50;74.00
17066;DHT22;23120;52.336;21.182;2023-09-18T14:28:49;31.50;75.20
17066;DHT22;23120;52.336;21.182;2023-09-18T14:31:17;31.40;72.70
17066;DHT22;23120;52.336;21.182;2023-09-18T14:33:44;31.50;72.20
17066;DHT22;23120;52.336;21.182;2023-09-18T14:36:11;31.60;72.70
17066;DHT22;23120;52.336;21.182;2023-09-18T14:38:38;31.60;71.50
17066;DHT22;23120;52.336;21.182;2023-09-18T14:41:06;31.80;74.80
17066;DHT22;23120;52.336;21.182;2023-09-18T14:47:54;31.90;73.90
17066;DHT22;23120;52.336;21.182;2023-09-18T14:50:55;32.10;73.70
17066;DHT22;23120;52.336;21.182;2023-09-18T14:57:57;32.00;69.80
17066;DHT22;23120;52.336;21.182;2023-09-18T15:04:55;32.10;71.70
17066;DHT22;23120;52.336;21.182;2023-09-18T15:07:22;32.20;72.00
17066;DHT22;23120;52.336;21.182;2023-09-18T15:14:41;32.30;71.00
17066;DHT22;23120;52.336;21.182;2023-09-18T15:17:18;32.20;69.80
17066;DHT22;23120;52.336;21.182;2023-09-18T15:19:45;32.10;70.30
17066;DHT22;23120;52.336;21.182;2023-09-18T15:32:31;31.70;69.90
17066;DHT22;23120;52.336;21.182;2023-09-18T15:50:12;31.10;69.80
17066;DHT22;23120;52.336;21.182;2023-09-18T15:52:40;31.00;70.00
17066;DHT22;23120;52.336;21.182;2023-09-18T15:55:18;30.00;68.10
17066;DHT22;23120;52.336;21.182;2023-09-18T15:57:45;30.10;70.10
17066;DHT22;23120;52.336;21.182;2023-09-18T16:00:13;30.20;71.60
17066;DHT22;23120;52.336;21.182;2023-09-18T16:02:43;30.10;70.30
17066;DHT22;23120;52.336;21.182;2023-09-18T16:05:11;29.90;71.10
17066;DHT22;23120;52.336;21.182;2023-09-18T16:07:40;29.80;70.80
17066;DHT22;23120;52.336;21.182;2023-09-18T16:10:08;29.60;71.90
17066;DHT22;23120;52.336;21.182;2023-09-18T16:12:35;29.50;71.60
17066;DHT22;23120;52.336;21.182;2023-09-18T16:15:03;29.20;72.80
17066;DHT22;23120;52.336;21.182;2023-09-18T16:17:31;29.10;73.40
17066;DHT22;23120;52.336;21.182;2023-09-18T16:19:58;28.90;73.30
17066;DHT22;23120;52.336;21.182;2023-09-18T16:22:27;28.00;74.20
17066;DHT22;23120;52.336;21.182;2023-09-18T16:24:54;27.50;76.90
17066;DHT22;23120;52.336;21.182;2023-09-18T16:27:24;27.20;75.90
17066;DHT22;23120;52.336;21.182;2023-09-18T16:29:52;26.90;77.20
17066;DHT22;23120;52.336;21.182;2023-09-18T16:32:20;26.70;77.80
17066;DHT22;23120;52.336;21.182;2023-09-18T16:34:48;26.40;78.50
17066;DHT22;23120;52.336;21.182;2023-09-18T16:37:32;26.20;80.30
17066;DHT22;23120;52.336;21.182;2023-09-18T16:40:02;25.90;82.20
17066;DHT22;23120;52.336;21.182;2023-09-18T16:42:31;25.70;86.20
17066;DHT22;23120;52.336;21.182;2023-09-18T16:44:57;25.60;85.80
17066;DHT22;23120;52.336;21.182;2023-09-18T16:47:26;25.40;86.80
17066;DHT22;23120;52.336;21.182;2023-09-18T16:49:53;25.30;88.90
17066;DHT22;23120;52.336;21.182;2023-09-18T16:52:37;25.30;89.10
17066;DHT22;23120;52.336;21.182;2023-09-18T16:59:04;25.40;87.70
17066;DHT22;23120;52.336;21.182;2023-09-18T17:26:05;24.90;88.70
17066;DHT22;23120;52.336;21.182;2023-09-18T17:28:33;24.80;88.60
17066;DHT22;23120;52.336;21.182;2023-09-18T17:31:00;24.70;88.50
17066;DHT22;23120;52.336;21.182;2023-09-18T17:33:29;24.60;88.80
17066;DHT22;23120;52.336;21.182;2023-09-18T17:35:56;24.50;89.90
17066;DHT22;23120;52.336;21.182;2023-09-18T17:38:23;24.40;89.30
17066;DHT22;23120;52.336;21.182;2023-09-18T17:40:50;24.30;89.30
17066;DHT22;23120;52.336;21.182;2023-09-18T17:55:23;23.80;90.60
17066;DHT22;23120;52.336;21.182;2023-09-18T17:58:56;23.60;90.90
17066;DHT22;23120;52.336;21.182;2023-09-18T18:33:38;22.40;92.90
17066;DHT22;23120;52.336;21.182;2023-09-18T18:36:06;22.40;93.20
17066;DHT22;23120;52.336;21.182;2023-09-18T18:38:33;22.20;93.60
17066;DHT22;23120;52.336;21.182;2023-09-18T18:41:22;22.20;94.30
17066;DHT22;23120;52.336;21.182;2023-09-18T18:43:50;22.20;94.40
17066;DHT22;23120;52.336;21.182;2023-09-18T18:46:17;22.10;94.40
17066;DHT22;23120;52.336;21.182;2023-09-18T18:48:46;22.10;94.20
17066;DHT22;23120;52.336;21.182;2023-09-18T18:51:14;22.00;94.40
17066;DHT22;23120;52.336;21.182;2023-09-18T18:57:28;21.90;94.70
17066;DHT22;23120;52.336;21.182;2023-09-18T18:59:58;21.90;94.60
17066;DHT22;23120;52.336;21.182;2023-09-18T19:02:25;21.80;94.60
17066;DHT22;23120;52.336;21.182;2023-09-18T19:04:54;21.80;95.40
17066;DHT22;23120;52.336;21.182;2023-09-18T19:07:39;21.70;95.10
17066;DHT22;23120;52.336;21.182;2023-09-18T19:10:07;21.70;95.20
17066;DHT22;23120;52.336;21.182;2023-09-18T19:12:33;21.60;95.30
17066;DHT22;23120;52.336;21.182;2023-09-18T19:15:06;21.60;95.20
17066;DHT22;23120;52.336;21.182;2023-09-18T19:17:33;21.60;95.80
17066;DHT22;23120;52.336;21.182;2023-09-18T19:26:57;21.40;96.20
17066;DHT22;23120;52.336;21.182;2023-09-18T19:29:25;21.40;96.10
17066;DHT22;23120;52.336;21.182;2023-09-18T19:31:53;21.40;96.30
17066;DHT22;23120;52.336;21.182;2023-09-18T19:34:20;21.40;96.50
17066;DHT22;23120;52.336;21.182;2023-09-18T19:36:47;21.40;96.70
17066;DHT22;23120;52.336;21.182;2023-09-18T19:39:18;21.40;96.50
17066;DHT22;23120;52.336;21.182;2023-09-18T19:41:47;21.30;96.50
17066;DHT22;23120;52.336;21.182;2023-09-18T19:44:15;21.30;96.80
17066;DHT22;23120;52.336;21.182;2023-09-18T19:46:42;21.30;97.10
17066;DHT22;23120;52.336;21.182;2023-09-18T19:49:09;21.30;97.20
17066;DHT22;23120;52.336;21.182;2023-09-18T19:51:36;21.20;96.90
17066;DHT22;23120;52.336;21.182;2023-09-18T19:54:03;21.20;96.90
17066;DHT22;23120;52.336;21.182;2023-09-18T19:56:31;21.20;97.00
17066;DHT22;23120;52.336;21.182;2023-09-18T19:59:00;21.10;97.10
17066;DHT22;23120;52.336;21.182;2023-09-18T20:01:27;21.10;97.20
17066;DHT22;23120;52.336;21.182;2023-09-18T20:03:56;21.10;97.10
17066;DHT22;23120;52.336;21.182;2023-09-18T20:06:23;21.10;97.20
17066;DHT22;23120;52.336;21.182;2023-09-18T20:08:51;21.10;97.20
17066;DHT22;23120;52.336;21.182;2023-09-18T20:11:20;21.00;97.30
17066;DHT22;23120;52.336;21.182;2023-09-18T20:13:47;21.10;97.10
17066;DHT22;23120;52.336;21.182;2023-09-18T20:16:15;21.00;97.80
17066;DHT22;23120;52.336;21.182;2023-09-18T20:18:42;21.00;97.70